HEL weather

Helsinki Vantaa Airport
Helsinki, Southern Finland, Finland

Public forecast

Using degrees Celsius for public forecast. Weather courtesy of forecast.io.

Current aviation weather report (METAR) for Helsinki Vantaa Airport

Retrieved 2020/04/05 13:20 UTC (16 minutes ago):

EFHK 051320Z 29014KT CAVOK 06/M11 Q1028 NOSIG

Aviation forecast (TAF) for Helsinki Vantaa Airport

Retrieved 2020/04/05 12:42 UTC (54 minutes ago):

TAF TAF EFHK 051132Z 0512/0612 29012G22KT CAVOK BECMG 0517/0519 23005KT TEMPO 0601/0607 7000 -RA BKN009 PROB40 0602/0607 1400 -RADZ BR BKN002